Time;durP1;ratioP1;P1;durP2;ratioP2;P2;SDS_P1;SDS_P2;PMS_P1;PMS_P2;Temp;Humidity;BMP_temperature;BMP_pressure;BME280_temperature;BME280_humidity;BME280_pressure;Samples;Min_cycle;Max_cycle;Signal;HPM_P1;HPM_P2
2022/06/30 00:00:58;;;;;;;8.45;5.50;;;;;;;24.19;64.02;95019.44;4999003;28;20974;-70
2022/06/30 00:03:24;;;;;;;5.90;5.43;;;;;;;23.88;65.36;95021.28;4996384;28;20218;-70
2022/06/30 00:05:51;;;;;;;6.38;5.78;;;;;;;23.89;65.12;95016.91;4997522;28;20990;-71
2022/06/30 00:08:18;;;;;;;6.28;5.63;;;;;;;23.98;64.72;95016.13;4998020;28;20272;-70
2022/06/30 00:10:45;;;;;;;6.70;6.07;;;;;;;24.05;64.85;95022.41;5002284;28;20203;-69
2022/06/30 00:13:13;;;;;;;9.52;5.63;;;;;;;24.04;64.84;95020.75;4998769;28;20212;-70
2022/06/30 00:15:40;;;;;;;6.75;5.82;;;;;;;23.95;64.82;95027.59;4997110;28;20827;-69
2022/06/30 00:18:07;;;;;;;8.40;5.07;;;;;;;23.93;64.74;95029.50;4999381;28;20209;-69
2022/06/30 00:20:33;;;;;;;7.18;5.57;;;;;;;23.77;65.49;95028.34;4997451;28;20203;-69
2022/06/30 00:23:01;;;;;;;11.70;5.72;;;;;;;23.74;65.61;95032.88;4995407;28;20214;-71
2022/06/30 00:25:27;;;;;;;7.72;5.28;;;;;;;23.79;65.40;95031.63;4997453;28;20352;-71
2022/06/30 00:27:54;;;;;;;9.70;5.78;;;;;;;23.82;64.99;95026.19;4995950;28;21115;-71
2022/06/30 00:30:22;;;;;;;11.25;5.28;;;;;;;23.84;64.89;95025.09;4996110;28;20309;-69
2022/06/30 00:32:49;;;;;;;6.28;5.88;;;;;;;23.89;64.36;95016.91;4995665;28;20200;-71
2022/06/30 00:35:16;;;;;;;14.88;8.70;;;;;;;23.92;64.12;95014.06;4998842;28;20208;-71
2022/06/30 00:37:42;;;;;;;7.05;6.38;;;;;;;23.87;64.43;95018.81;4996015;28;20217;-71
2022/06/30 00:40:10;;;;;;;10.55;6.25;;;;;;;23.88;64.39;95010.91;4997173;28;20760;-70
2022/06/30 00:42:37;;;;;;;8.00;6.18;;;;;;;23.75;64.35;95007.75;4995880;28;20287;-70
2022/06/30 00:45:04;;;;;;;8.07;5.85;;;;;;;23.69;64.60;95014.28;4992704;28;20203;-70
2022/06/30 00:47:33;;;;;;;8.35;6.13;;;;;;;23.57;64.67;95020.50;4993731;28;20230;-71
2022/06/30 00:50:00;;;;;;;6.05;5.55;;;;;;;23.24;66.21;95016.38;4997829;28;20206;-70
2022/06/30 00:52:30;;;;;;;6.55;6.03;;;;;;;23.37;65.93;95016.16;4995397;28;20203;-71
2022/06/30 00:54:58;;;;;;;6.38;5.82;;;;;;;23.04;66.85;95019.81;4998601;28;20415;-70
2022/06/30 00:57:26;;;;;;;6.00;5.25;;;;;;;22.60;68.40;95020.84;4993223;28;20207;-70
2022/06/30 00:59:54;;;;;;;6.60;5.88;;;;;;;22.30;69.96;95019.78;4993937;28;20199;-71
2022/06/30 01:02:22;;;;;;;5.72;5.28;;;;;;;22.56;68.84;95020.28;4996967;28;20689;-72
2022/06/30 01:04:53;;;;;;;6.90;5.60;;;;;;;22.51;68.80;95004.31;4997014;28;20234;-71
2022/06/30 01:07:23;;;;;;;9.68;5.68;;;;;;;22.54;68.85;95006.63;4996517;28;20207;-73
2022/06/30 01:12:43;;;;;;;11.15;7.03;;;;;;;20.60;76.44;95000.19;4996374;28;20218;-71
2022/06/30 01:15:11;;;;;;;10.15;6.07;;;;;;;21.21;75.17;94997.38;4994682;28;20202;-71
2022/06/30 01:17:38;;;;;;;9.32;5.60;;;;;;;21.90;72.37;95003.19;4994923;28;20274;-70
2022/06/30 01:20:08;;;;;;;7.15;6.30;;;;;;;22.28;70.35;95011.31;4997277;28;20712;-69
2022/06/30 01:22:36;;;;;;;6.93;6.43;;;;;;;21.90;71.20;95011.78;4997320;28;20235;-69
2022/06/30 01:25:04;;;;;;;11.57;6.20;;;;;;;21.01;74.95;95010.03;4996742;28;20215;-71
2022/06/30 01:27:31;;;;;;;9.38;6.75;;;;;;;20.43;77.83;94997.19;4995564;28;20319;-71
2022/06/30 01:29:59;;;;;;;6.93;6.22;;;;;;;20.12;79.43;94996.81;4994821;28;20664;-70
2022/06/30 01:32:28;;;;;;;9.82;6.90;;;;;;;20.17;80.05;95005.06;4991914;28;20207;-70
2022/06/30 01:34:54;;;;;;;7.68;6.78;;;;;;;20.03;80.27;95003.47;4993723;28;20277;-70
2022/06/30 01:37:21;;;;;;;6.63;6.03;;;;;;;19.75;81.84;95011.50;4992828;28;20874;-70
2022/06/30 01:39:49;;;;;;;7.75;7.10;;;;;;;19.57;82.99;95005.88;4993831;28;20679;-69
2022/06/30 01:42:16;;;;;;;6.85;6.28;;;;;;;19.64;82.69;95006.28;4994724;28;20686;-69
2022/06/30 01:44:43;;;;;;;7.22;6.57;;;;;;;19.73;82.39;95003.06;4993478;28;20207;-69
2022/06/30 01:47:10;;;;;;;7.35;6.72;;;;;;;20.03;81.24;95005.22;4996162;28;20892;-69
2022/06/30 01:49:37;;;;;;;7.75;7.00;;;;;;;20.42;78.88;95003.31;4996117;28;20273;-69
2022/06/30 01:52:05;;;;;;;6.93;6.30;;;;;;;20.36;79.06;95005.34;4998704;28;20266;-69
2022/06/30 01:54:32;;;;;;;7.63;6.63;;;;;;;19.91;80.96;95008.66;4998407;28;20215;-70
2022/06/30 01:57:00;;;;;;;8.38;7.45;;;;;;;19.74;82.00;95001.31;5000720;28;20666;-69
2022/06/30 01:59:27;;;;;;;8.82;6.40;;;;;;;20.03;81.12;95002.66;4999979;28;20219;-69
2022/06/30 02:01:54;;;;;;;6.82;6.13;;;;;;;20.37;79.32;94999.28;4999288;28;20227;-70
2022/06/30 02:07:05;;;;;;;9.93;6.35;;;;;;;20.83;77.60;95001.06;4998130;28;20210;-69
2022/06/30 02:09:32;;;;;;;6.43;6.00;;;;;;;21.02;76.74;95008.28;4999248;28;20219;-71
2022/06/30 02:14:44;;;;;;;7.18;6.45;;;;;;;21.24;75.31;95000.56;4999738;28;20241;-70
2022/06/30 02:17:11;;;;;;;9.43;7.18;;;;;;;20.70;77.08;95000.34;4997729;28;20215;-69
2022/06/30 02:19:38;;;;;;;13.82;7.65;;;;;;;20.31;78.67;95001.47;4998420;28;20211;-69
2022/06/30 02:22:05;;;;;;;8.38;6.68;;;;;;;20.95;76.89;95007.91;4996219;28;20231;-70
2022/06/30 02:24:32;;;;;;;7.22;6.55;;;;;;;21.27;75.53;95007.25;4998709;28;20204;-70
2022/06/30 02:27:00;;;;;;;7.40;6.60;;;;;;;21.60;73.87;95004.66;4998971;28;20235;-69
2022/06/30 02:29:27;;;;;;;7.93;6.05;;;;;;;21.00;75.63;95012.72;4997941;28;20212;-69
2022/06/30 02:31:54;;;;;;;8.00;6.47;;;;;;;20.36;77.79;95014.84;4997796;28;20202;-69
2022/06/30 02:34:21;;;;;;;8.80;7.00;;;;;;;20.07;79.37;95009.22;4999112;28;20265;-69
2022/06/30 02:36:47;;;;;;;7.22;6.65;;;;;;;19.78;80.98;95013.06;4997192;28;20200;-71
2022/06/30 02:39:14;;;;;;;8.38;7.55;;;;;;;19.80;80.67;95014.56;4997619;28;20572;-71
2022/06/30 02:41:41;;;;;;;9.57;6.38;;;;;;;19.78;80.13;95016.47;4997858;28;20289;-70
2022/06/30 02:44:09;;;;;;;6.18;5.57;;;;;;;19.45;81.58;95011.88;4999040;28;20671;-70
2022/06/30 02:46:36;;;;;;;8.32;6.50;;;;;;;19.36;82.14;95017.63;4998501;28;20895;-70
2022/06/30 02:49:02;;;;;;;9.15;6.72;;;;;;;19.34;82.13;95019.50;4999508;28;20214;-71
2022/06/30 02:51:30;;;;;;;7.20;6.50;;;;;;;19.33;82.30;95012.69;4998970;28;21297;-70
2022/06/30 02:53:57;;;;;;;11.00;6.55;;;;;;;19.61;81.04;95020.19;4995737;28;20261;-71
2022/06/30 02:56:23;;;;;;;10.77;6.05;;;;;;;19.67;80.74;95021.53;4997112;28;20501;-71
2022/06/30 02:58:50;;;;;;;11.85;6.65;;;;;;;19.52;80.94;95018.28;4996788;28;20207;-71
2022/06/30 03:01:18;;;;;;;11.52;6.60;;;;;;;19.25;82.05;95026.13;4999236;28;20280;-70
2022/06/30 03:03:45;;;;;;;13.32;7.03;;;;;;;18.97;83.47;95022.00;4999411;28;20204;-70
2022/06/30 03:06:12;;;;;;;14.90;7.35;;;;;;;18.69;84.70;95017.03;5000283;28;20669;-70
2022/06/30 03:08:39;;;;;;;9.82;6.85;;;;;;;18.55;85.49;95019.69;5000042;28;20256;-69
2022/06/30 03:11:06;;;;;;;9.65;6.82;;;;;;;18.67;85.19;95013.75;4997537;28;20207;-70
2022/06/30 03:13:33;;;;;;;12.23;6.30;;;;;;;18.59;85.51;95021.09;4997943;28;20213;-72
2022/06/30 03:16:01;;;;;;;8.52;6.53;;;;;;;19.18;83.71;95016.31;4999518;28;20206;-71
2022/06/30 03:18:30;;;;;;;10.90;6.57;;;;;;;19.63;81.22;95013.19;4998319;28;20252;-71
2022/06/30 03:20:56;;;;;;;7.78;5.93;;;;;;;19.90;80.05;95012.19;4998496;28;20248;-71
2022/06/30 03:23:23;;;;;;;7.57;6.75;;;;;;;20.23;78.32;95009.78;4995933;28;20229;-71
2022/06/30 03:25:50;;;;;;;7.05;6.45;;;;;;;19.93;78.97;95017.94;4996717;28;20898;-72
2022/06/30 03:28:17;;;;;;;7.15;6.40;;;;;;;20.13;78.68;95013.94;4998116;28;20719;-72
2022/06/30 03:30:45;;;;;;;11.68;6.85;;;;;;;20.12;78.62;95014.06;4998547;28;20207;-71
2022/06/30 03:33:12;;;;;;;9.02;6.90;;;;;;;20.60;77.42;95012.28;4998042;28;20214;-70
2022/06/30 03:35:40;;;;;;;8.55;6.15;;;;;;;22.45;71.20;95022.94;4997721;28;21292;-72
2022/06/30 03:38:07;;;;;;;6.90;6.30;;;;;;;24.69;63.55;95011.53;4995724;28;20211;-71
2022/06/30 03:40:34;;;;;;;11.38;6.45;;;;;;;25.62;58.37;95013.38;4998347;28;20661;-71
2022/06/30 03:43:01;;;;;;;17.85;6.63;;;;;;;25.96;57.16;95013.66;4998892;28;20238;-71
2022/06/30 03:45:28;;;;;;;22.27;6.82;;;;;;;26.88;54.97;95009.00;5000760;28;21056;-70
2022/06/30 03:47:55;;;;;;;12.05;6.28;;;;;;;27.35;53.26;95014.69;4996011;28;20676;-71
2022/06/30 03:50:22;;;;;;;12.20;7.53;;;;;;;27.91;51.61;95010.75;4995999;28;20266;-71
2022/06/30 03:52:50;;;;;;;13.57;6.57;;;;;;;28.88;49.73;95007.50;4997909;28;20204;-70
2022/06/30 03:55:17;;;;;;;13.82;6.47;;;;;;;29.49;47.46;94997.44;4997370;28;20204;-71
2022/06/30 03:57:44;;;;;;;14.55;7.38;;;;;;;29.82;46.95;95003.38;4993760;28;20623;-70
2022/06/30 04:00:11;;;;;;;20.30;13.85;;;;;;;30.22;45.34;95011.06;4998737;28;20207;-72
2022/06/30 04:02:38;;;;;;;32.13;19.20;;;;;;;30.05;46.03;95015.59;4997021;28;20309;-71
2022/06/30 04:05:06;;;;;;;10.63;8.15;;;;;;;30.63;44.76;95008.22;4998128;28;20227;-71
2022/06/30 04:07:33;;;;;;;23.17;14.10;;;;;;;30.67;44.80;95004.25;4997852;28;20204;-70
2022/06/30 04:10:01;;;;;;;24.30;16.98;;;;;;;30.86;43.97;95014.25;4998363;28;20679;-70
2022/06/30 04:12:28;;;;;;;15.02;10.18;;;;;;;31.11;43.93;95007.84;4995886;28;20204;-71
2022/06/30 04:14:55;;;;;;;12.48;8.13;;;;;;;30.66;44.68;95005.25;4994584;28;20372;-70
2022/06/30 04:17:21;;;;;;;13.48;7.32;;;;;;;29.46;46.97;95006.44;4998138;28;20207;-70
2022/06/30 04:19:48;;;;;;;17.55;7.68;;;;;;;28.62;49.50;95012.88;4996036;28;20231;-71
2022/06/30 04:22:15;;;;;;;12.05;8.23;;;;;;;27.77;51.66;95017.38;4997615;28;20241;-70
2022/06/30 04:24:42;;;;;;;14.02;8.05;;;;;;;26.98;53.29;95011.50;4998180;28;20203;-70
2022/06/30 04:27:10;;;;;;;16.08;7.85;;;;;;;26.93;54.88;95014.56;4998051;28;20241;-69
2022/06/30 04:29:36;;;;;;;14.27;7.03;;;;;;;26.87;55.57;95012.56;4997105;28;20207;-70
2022/06/30 04:34:48;;;;;;;10.95;7.70;;;;;;;25.87;57.59;95017.13;4995950;28;21680;-70
2022/06/30 04:37:16;;;;;;;7.85;7.07;;;;;;;25.82;57.81;95022.75;4997951;28;20277;-70
2022/06/30 04:39:43;;;;;;;18.88;7.85;;;;;;;25.85;58.46;95016.44;4994528;28;20214;-70
2022/06/30 04:42:10;;;;;;;8.70;7.80;;;;;;;27.15;55.02;95025.50;4997877;28;20227;-70
2022/06/30 04:44:37;;;;;;;14.05;8.23;;;;;;;28.09;51.99;95024.50;4997209;28;20203;-70
2022/06/30 04:47:04;;;;;;;12.15;8.27;;;;;;;29.02;49.84;95017.28;4997329;28;20212;-71
2022/06/30 04:49:30;;;;;;;12.85;8.55;;;;;;;29.66;48.02;95015.56;4994476;28;20654;-73
2022/06/30 04:51:57;;;;;;;12.48;8.27;;;;;;;29.07;49.50;95014.19;4998955;28;20211;-70
2022/06/30 04:54:24;;;;;;;45.88;30.75;;;;;;;29.95;47.65;95016.75;4995475;28;20211;-70
2022/06/30 04:56:51;;;;;;;18.25;9.57;;;;;;;30.63;45.91;95016.09;4995231;28;21136;-71
2022/06/30 04:59:19;;;;;;;20.88;9.77;;;;;;;31.93;42.61;95020.09;4992975;28;20622;-69
2022/06/30 05:01:45;;;;;;;10.75;8.75;;;;;;;32.56;40.90;95021.25;4997084;28;20871;-69
2022/06/30 05:04:13;;;;;;;14.75;9.60;;;;;;;31.97;41.95;95016.09;4994920;28;20231;-72
2022/06/30 05:06:40;;;;;;;13.77;8.82;;;;;;;31.69;42.52;95018.56;4997065;28;20203;-71
2022/06/30 05:09:06;;;;;;;12.98;8.77;;;;;;;31.31;43.47;95017.81;4995094;28;20258;-70
2022/06/30 05:11:35;;;;;;;13.32;9.07;;;;;;;30.66;44.31;95031.47;4996242;28;20204;-69
2022/06/30 05:14:01;;;;;;;13.13;8.70;;;;;;;30.13;45.89;95027.84;4994489;28;20277;-72
2022/06/30 05:16:29;;;;;;;21.30;10.60;;;;;;;29.70;46.76;95027.31;4995436;28;20211;-71
2022/06/30 05:18:56;;;;;;;22.05;13.57;;;;;;;29.81;46.28;95028.75;4994755;28;20215;-71
2022/06/30 05:21:23;;;;;;;16.08;11.13;;;;;;;30.73;44.96;95032.38;4994593;28;20204;-72
2022/06/30 05:26:30;;;;;;;12.88;9.63;;;;;;;34.54;36.74;95017.31;4999459;28;22349;-70
2022/06/30 05:28:57;;;;;;;15.48;9.30;;;;;;;35.89;34.43;95035.41;5004314;28;20215;-70
2022/06/30 05:31:24;;;;;;;18.15;9.73;;;;;;;37.42;32.54;95027.22;5003826;28;20210;-69
2022/06/30 05:33:52;;;;;;;13.63;9.23;;;;;;;37.91;31.23;95030.81;5002912;28;20204;-70
2022/06/30 05:36:18;;;;;;;15.00;10.10;;;;;;;38.52;30.65;95031.75;5003404;28;20288;-70
2022/06/30 05:38:45;;;;;;;17.13;9.98;;;;;;;38.92;29.56;95038.13;5002748;28;20762;-71
2022/06/30 05:41:12;;;;;;;16.20;9.38;;;;;;;39.25;28.98;95037.66;5001413;28;22089;-70
2022/06/30 05:43:39;;;;;;;12.05;10.82;;;;;;;39.42;29.38;95038.56;5000334;28;20740;-71
2022/06/30 05:46:05;;;;;;;17.40;10.20;;;;;;;38.92;29.69;95037.31;5003000;28;20764;-70
2022/06/30 05:48:32;;;;;;;16.17;10.38;;;;;;;39.13;29.09;95042.13;5002486;28;20211;-69
2022/06/30 05:51:00;;;;;;;14.23;9.63;;;;;;;39.35;28.63;95040.53;5000685;28;20260;-70
2022/06/30 05:53:27;;;;;;;10.93;9.88;;;;;;;38.93;29.19;95039.75;5003233;28;20260;-69
2022/06/30 05:55:54;;;;;;;15.35;10.00;;;;;;;39.38;28.40;95039.25;5002348;28;20697;-69
2022/06/30 05:58:21;;;;;;;11.07;9.80;;;;;;;38.26;30.67;95039.03;5001775;28;20221;-69
2022/06/30 06:00:47;;;;;;;21.02;10.65;;;;;;;38.19;30.95;95040.94;5000976;28;20218;-70
2022/06/30 06:03:15;;;;;;;73.43;53.08;;;;;;;38.57;30.33;95034.56;5003264;28;20232;-70
2022/06/30 06:05:41;;;;;;;18.45;12.65;;;;;;;37.51;31.76;95040.19;5002008;28;20219;-70
2022/06/30 06:08:11;;;;;;;18.92;10.98;;;;;;;37.49;31.71;95037.75;4999502;28;20199;-70
2022/06/30 06:10:38;;;;;;;16.73;9.52;;;;;;;37.98;31.01;95036.06;5002844;28;20195;-70
2022/06/30 06:13:05;;;;;;;13.98;11.98;;;;;;;37.25;31.41;95046.53;5001117;28;20685;-71
2022/06/30 06:15:32;;;;;;;23.65;13.93;;;;;;;36.84;32.29;95044.38;5002680;28;20848;-71
2022/06/30 06:17:59;;;;;;;47.40;27.55;;;;;;;36.58;33.93;95050.63;5001774;28;20227;-71
2022/06/30 06:20:26;;;;;;;28.58;16.52;;;;;;;36.76;33.04;95058.69;5004946;28;20207;-71
2022/06/30 06:22:52;;;;;;;17.52;12.00;;;;;;;36.49;32.62;95051.88;5000951;28;20284;-71
2022/06/30 06:25:21;;;;;;;12.65;10.32;;;;;;;35.33;34.49;95051.75;5002023;28;20203;-70
2022/06/30 06:30:30;;;;;;;15.10;11.00;;;;;;;34.36;36.36;95052.19;5003006;28;20213;-70
2022/06/30 06:32:57;;;;;;;19.98;12.20;;;;;;;34.34;36.58;95051.56;5000479;28;20273;-69
2022/06/30 06:35:23;;;;;;;19.58;13.18;;;;;;;33.91;37.71;95045.63;5001089;28;20212;-70
2022/06/30 06:37:50;;;;;;;19.85;10.48;;;;;;;33.74;38.02;95053.84;4997161;28;20215;-70
2022/06/30 06:40:17;;;;;;;44.53;26.80;;;;;;;33.22;38.86;95045.53;4998060;28;20649;-70
2022/06/30 06:42:45;;;;;;;75.50;48.30;;;;;;;33.08;38.70;95044.66;4998919;28;20235;-69
2022/06/30 06:45:12;;;;;;;19.13;12.30;;;;;;;32.78;39.24;95033.44;4996770;28;20349;-70
2022/06/30 06:47:39;;;;;;;13.23;8.68;;;;;;;32.06;41.67;95043.94;4998830;28;20266;-70
2022/06/30 06:50:07;;;;;;;8.25;7.45;;;;;;;32.45;41.32;95039.16;5000854;28;20264;-69
2022/06/30 06:52:34;;;;;;;10.70;7.80;;;;;;;32.25;40.96;95027.59;4995879;28;20330;-70
2022/06/30 06:55:01;;;;;;;15.73;10.82;;;;;;;32.02;41.36;95032.16;4997105;28;20744;-70
2022/06/30 06:57:33;;;;;;;29.65;15.82;;;;;;;32.13;41.60;95031.69;4998291;28;20277;-71
2022/06/30 07:00:01;;;;;;;28.58;14.93;;;;;;;32.20;42.23;95035.19;5000194;28;20472;-70
2022/06/30 07:02:28;;;;;;;20.38;14.13;;;;;;;32.18;42.04;95036.38;4998355;28;20221;-70
2022/06/30 07:04:55;;;;;;;20.80;13.13;;;;;;;32.08;42.86;95026.97;5000541;28;21365;-71
2022/06/30 07:07:21;;;;;;;28.27;14.68;;;;;;;31.95;42.55;95026.00;4997915;28;20200;-70
2022/06/30 07:09:48;;;;;;;20.63;13.90;;;;;;;31.89;42.37;95024.94;4997319;28;20329;-71
2022/06/30 07:12:15;;;;;;;12.63;7.97;;;;;;;31.55;42.60;95022.81;4996887;28;21136;-71
2022/06/30 07:14:42;;;;;;;9.07;8.23;;;;;;;31.51;43.30;95023.34;4996534;28;20208;-70
2022/06/30 07:17:10;;;;;;;9.77;8.25;;;;;;;31.31;44.69;95023.88;4994664;28;20690;-70
2022/06/30 07:19:37;;;;;;;15.50;9.65;;;;;;;31.23;44.75;95025.75;4998854;28;20211;-71
2022/06/30 07:22:04;;;;;;;17.15;12.40;;;;;;;31.26;43.93;95020.16;4997673;28;20212;-70
2022/06/30 07:24:31;;;;;;;9.73;8.75;;;;;;;30.67;44.32;95020.00;4996260;28;20584;-71
2022/06/30 07:26:57;;;;;;;11.93;7.80;;;;;;;30.44;44.78;95015.50;4996337;28;20235;-70
2022/06/30 07:29:26;;;;;;;8.93;7.45;;;;;;;30.71;45.44;95019.44;5000560;28;20215;-70
2022/06/30 07:31:53;;;;;;;10.65;8.10;;;;;;;31.06;44.72;95018.03;4996916;28;20303;-70
2022/06/30 07:34:21;;;;;;;10.43;8.63;;;;;;;31.18;43.90;95022.88;4997263;28;20285;-71
2022/06/30 07:36:48;;;;;;;14.35;8.48;;;;;;;31.26;43.36;95020.16;4996266;28;20210;-71
2022/06/30 07:39:15;;;;;;;8.18;7.40;;;;;;;31.38;42.99;95030.06;4997717;28;20203;-71
2022/06/30 07:41:42;;;;;;;7.97;7.22;;;;;;;31.23;42.87;95018.72;4997870;28;20297;-71
2022/06/30 07:44:08;;;;;;;14.60;8.20;;;;;;;30.59;44.17;95014.81;4998249;28;20767;-71
2022/06/30 07:46:35;;;;;;;8.55;7.55;;;;;;;30.68;44.95;95021.63;4995614;28;23039;-71
2022/06/30 07:49:02;;;;;;;13.63;8.82;;;;;;;30.97;44.14;95021.69;4998094;28;20208;-71
2022/06/30 07:51:30;;;;;;;9.73;8.00;;;;;;;31.11;43.72;95020.97;4996506;28;20681;-71
2022/06/30 07:53:57;;;;;;;12.02;7.03;;;;;;;31.25;43.55;95014.09;4997710;28;21206;-71
2022/06/30 07:56:24;;;;;;;12.35;7.28;;;;;;;31.41;43.36;95019.19;4996702;28;20681;-71
2022/06/30 07:58:51;;;;;;;14.70;9.38;;;;;;;31.51;42.60;95008.41;4996807;28;20220;-72
2022/06/30 08:01:19;;;;;;;11.23;7.00;;;;;;;31.26;42.50;95015.72;4998383;28;20285;-71
2022/06/30 08:03:46;;;;;;;13.07;8.52;;;;;;;31.23;43.07;95010.81;4996651;28;20320;-71
2022/06/30 08:06:13;;;;;;;8.90;7.35;;;;;;;31.21;42.54;95023.31;4996859;28;20231;-72
2022/06/30 08:08:44;;;;;;;55.53;34.53;;;;;;;31.07;43.13;95011.78;4995062;28;20737;-72
2022/06/30 08:11:11;;;;;;;18.67;15.35;;;;;;;31.02;43.49;95008.03;4997996;28;20215;-71
2022/06/30 08:13:39;;;;;;;32.55;18.63;;;;;;;31.04;43.03;95009.50;4997703;28;20207;-73
2022/06/30 08:16:06;;;;;;;26.63;19.50;;;;;;;30.91;43.43;95017.19;4995444;28;20362;-73
2022/06/30 08:18:32;;;;;;;28.02;20.55;;;;;;;30.74;43.76;95010.41;5000990;28;20277;-72
2022/06/30 08:20:59;;;;;;;41.42;32.47;;;;;;;30.96;43.39;95004.31;4994462;28;20227;-73
2022/06/30 08:23:26;;;;;;;20.23;15.13;;;;;;;31.17;43.22;95000.25;4994625;28;21166;-71
2022/06/30 08:25:54;;;;;;;49.60;35.50;;;;;;;31.23;42.17;95000.31;5000510;28;20240;-71
2022/06/30 08:28:21;;;;;;;49.00;36.47;;;;;;;31.25;42.93;95005.41;4997525;28;20277;-72
2022/06/30 08:30:48;;;;;;;59.28;42.80;;;;;;;31.07;42.95;95009.16;4996387;28;20211;-73
2022/06/30 08:33:15;;;;;;;23.50;14.48;;;;;;;30.89;42.75;95013.09;4996245;28;20204;-72
2022/06/30 08:35:43;;;;;;;32.88;24.77;;;;;;;31.11;43.04;95013.09;4996453;28;20203;-71
2022/06/30 08:38:10;;;;;;;24.58;14.75;;;;;;;31.15;42.90;95008.31;4994247;28;20215;-70
2022/06/30 08:43:25;;;;;;;11.73;7.78;;;;;;;31.29;42.18;95010.13;4992804;28;20857;-72
2022/06/30 08:45:53;;;;;;;20.10;14.98;;;;;;;31.25;41.80;95008.84;4995422;28;20207;-72
2022/06/30 08:48:20;;;;;;;14.77;9.95;;;;;;;31.30;41.12;95005.69;4995561;28;20274;-73
2022/06/30 08:50:49;;;;;;;8.90;7.35;;;;;;;31.13;40.75;95009.47;4991821;28;20663;-73
2022/06/30 08:53:17;;;;;;;11.15;7.03;;;;;;;31.04;40.44;95006.88;4992109;28;20755;-74
2022/06/30 08:55:46;;;;;;;15.57;11.73;;;;;;;31.16;41.80;95011.75;4996826;28;20312;-73
2022/06/30 08:58:13;;;;;;;15.10;10.05;;;;;;;31.24;41.36;95011.63;4995143;28;20672;-72
2022/06/30 09:00:42;;;;;;;13.45;9.15;;;;;;;31.40;41.65;95001.00;4991636;28;20576;-72
2022/06/30 09:03:10;;;;;;;11.50;8.40;;;;;;;31.57;41.54;95002.44;4994552;28;20214;-73
2022/06/30 09:05:38;;;;;;;11.13;6.13;;;;;;;31.47;39.89;95007.13;4989025;28;20234;-71
2022/06/30 09:08:06;;;;;;;12.98;8.20;;;;;;;31.31;42.09;95002.06;4989805;28;20721;-71
2022/06/30 09:10:32;;;;;;;18.55;8.38;;;;;;;31.46;40.67;94992.38;4992037;28;20213;-71
2022/06/30 09:13:01;;;;;;;10.63;7.35;;;;;;;31.45;39.91;95002.06;4994569;28;20834;-73
2022/06/30 09:15:30;;;;;;;11.55;7.80;;;;;;;31.46;41.01;94990.56;4994510;28;20290;-72
2022/06/30 09:18:00;;;;;;;10.02;7.43;;;;;;;31.42;40.75;94993.75;4992414;28;20208;-72
2022/06/30 09:20:35;;;;;;;11.15;7.03;;;;;;;31.20;41.14;94994.63;4993526;28;20358;-71
2022/06/30 09:23:18;;;;;;;30.90;20.88;;;;;;;31.35;40.64;94987.59;4991877;28;20597;-70
2022/06/30 09:25:48;;;;;;;13.00;6.60;;;;;;;31.10;40.28;94985.19;4993861;28;20331;-70
2022/06/30 09:28:41;;;;;;;13.80;7.93;;;;;;;31.30;40.88;94984.69;4993908;28;21895;-70
2022/06/30 09:31:08;;;;;;;38.90;27.35;;;;;;;31.38;40.50;94976.72;4996352;28;20199;-70
2022/06/30 09:33:39;;;;;;;34.72;24.00;;;;;;;31.67;39.90;94971.50;4992648;28;20207;-70
2022/06/30 09:36:23;;;;;;;20.77;15.27;;;;;;;31.84;39.60;94979.16;4994271;28;20212;-70
2022/06/30 09:39:00;;;;;;;13.57;8.52;;;;;;;31.64;39.03;94971.81;4994699;28;20200;-70
2022/06/30 09:41:29;;;;;;;6.70;5.10;;;;;;;30.60;40.91;94980.53;4993459;28;20645;-70
2022/06/30 09:43:56;;;;;;;7.80;5.78;;;;;;;30.11;41.71;94975.59;4993348;28;20935;-71
2022/06/30 09:46:23;;;;;;;11.07;6.35;;;;;;;29.93;41.31;94985.50;4993276;28;20612;-72
2022/06/30 09:48:51;;;;;;;7.55;5.80;;;;;;;30.45;40.91;94980.44;4993180;28;20208;-72
2022/06/30 09:51:18;;;;;;;7.47;5.85;;;;;;;30.95;41.27;94976.44;4993442;28;20207;-70
2022/06/30 09:54:05;;;;;;;11.18;5.50;;;;;;;31.22;41.11;94975.06;4996858;28;20203;-70
2022/06/30 09:56:32;;;;;;;6.95;4.55;;;;;;;31.24;39.67;94980.94;4994855;28;20289;-70
2022/06/30 09:58:59;;;;;;;9.00;4.07;;;;;;;31.10;38.22;94977.31;4995737;28;20714;-71
2022/06/30 10:01:26;;;;;;;9.00;4.57;;;;;;;31.05;39.46;94978.81;4992712;28;20269;-70
2022/06/30 10:04:01;;;;;;;6.75;5.85;;;;;;;31.34;39.29;94972.81;4993561;28;20282;-70
2022/06/30 10:06:28;;;;;;;6.95;4.00;;;;;;;30.80;38.91;94967.72;4994034;28;20211;-69
2022/06/30 10:08:56;;;;;;;5.85;4.25;;;;;;;30.81;37.67;94974.63;4996547;28;20293;-69
2022/06/30 10:11:23;;;;;;;11.82;8.75;;;;;;;30.98;37.60;94968.22;4997689;28;20207;-69
2022/06/30 10:13:51;;;;;;;5.97;4.30;;;;;;;31.02;37.23;94966.06;4997226;28;20349;-70
2022/06/30 10:16:19;;;;;;;4.28;4.03;;;;;;;31.18;36.81;94965.13;4998739;28;20368;-75
2022/06/30 10:18:47;;;;;;;9.18;4.13;;;;;;;30.55;35.99;94963.66;4997586;28;20200;-71
2022/06/30 10:21:16;;;;;;;10.48;4.30;;;;;;;30.64;37.25;94960.00;4995624;28;20288;-71
2022/06/30 10:23:44;;;;;;;4.13;3.75;;;;;;;31.00;36.91;94962.78;4998160;28;20215;-71
2022/06/30 10:27:12;;;;;;;6.00;3.72;;;;;;;30.66;35.85;94960.66;5001106;28;21229;-72
2022/06/30 10:28:59;;;;;;;6.22;4.35;;;;;;;31.23;36.12;94958.31;4995417;28;20625;-70
2022/06/30 10:31:34;;;;;;;3.38;3.17;;;;;;;30.58;32.80;94952.84;4993947;28;20211;-71
2022/06/30 10:34:08;;;;;;;3.38;3.15;;;;;;;30.28;35.39;94957.94;4994618;28;20749;-71
2022/06/30 10:36:44;;;;;;;3.92;3.50;;;;;;;30.53;35.82;94949.91;4998617;28;20305;-71
2022/06/30 10:39:21;;;;;;;3.03;2.83;;;;;;;30.20;33.26;94955.38;5000899;28;20206;-70
2022/06/30 10:41:49;;;;;;;8.55;2.95;;;;;;;30.24;31.55;94951.41;4996087;28;20338;-71
2022/06/30 10:44:22;;;;;;;2.83;2.60;;;;;;;30.78;32.45;94944.28;4997567;28;20231;-71
2022/06/30 10:47:11;;;;;;;3.38;2.97;;;;;;;30.83;33.11;94938.53;4993737;28;20218;-70
2022/06/30 10:49:55;;;;;;;3.28;3.08;;;;;;;30.94;34.37;94935.44;4993384;28;20289;-70
2022/06/30 10:52:26;;;;;;;3.75;2.85;;;;;;;31.16;32.72;94930.34;4994430;28;20289;-70
2022/06/30 10:55:01;;;;;;;3.55;2.95;;;;;;;30.85;33.00;94923.41;4994258;28;20244;-73
2022/06/30 10:57:48;;;;;;;3.42;3.13;;;;;;;30.59;33.09;94928.25;4994417;28;20264;-70
2022/06/30 11:00:46;;;;;;;4.38;3.15;;;;;;;30.74;32.56;94923.84;4996854;28;20215;-70
2022/06/30 11:03:58;;;;;;;4.72;2.83;;;;;;;31.03;32.31;94923.88;4994976;28;20211;-72
2022/06/30 11:06:26;;;;;;;2.90;2.70;;;;;;;31.03;33.58;94923.88;4960480;28;20286;-71
2022/06/30 11:08:58;;;;;;;4.38;2.88;;;;;;;30.51;32.65;94925.66;4996460;28;20214;-71
2022/06/30 11:11:44;;;;;;;5.82;3.08;;;;;;;30.59;32.86;94917.75;4994939;28;20207;-72
2022/06/30 11:14:27;;;;;;;4.80;2.92;;;;;;;30.21;32.56;94914.25;4999272;28;20199;-70
2022/06/30 11:16:54;;;;;;;3.22;2.97;;;;;;;30.29;33.03;94908.94;5035594;28;20203;-70
2022/06/30 11:19:24;;;;;;;4.63;2.55;;;;;;;30.87;33.62;94900.44;5029270;28;20357;-70
2022/06/30 11:21:51;;;;;;;3.33;3.08;;;;;;;31.35;34.14;94898.31;5029118;28;20231;-70
2022/06/30 11:24:23;;;;;;;3.05;2.75;;;;;;;31.28;32.61;94889.50;5029898;28;20223;-70
2022/06/30 11:29:35;;;;;;;3.42;3.13;;;;;;;31.38;33.37;94887.44;5030430;28;20213;-70
2022/06/30 11:32:03;;;;;;;3.90;2.75;;;;;;;30.92;32.77;94892.03;5030217;28;20203;-69
2022/06/30 11:34:31;;;;;;;5.80;3.15;;;;;;;30.75;33.96;94892.19;5029982;28;20200;-70
2022/06/30 11:36:57;;;;;;;3.00;2.85;;;;;;;30.79;33.34;94895.25;5032231;28;20234;-70
2022/06/30 11:39:26;;;;;;;2.95;2.78;;;;;;;31.03;34.95;94889.75;5032544;28;20227;-70
2022/06/30 11:41:56;;;;;;;4.28;3.13;;;;;;;30.83;33.24;94888.66;5031204;28;20592;-70
2022/06/30 11:44:25;;;;;;;5.07;3.17;;;;;;;30.81;34.24;94882.78;5031873;28;20709;-69
2022/06/30 11:46:55;;;;;;;3.25;3.05;;;;;;;31.03;33.65;94879.25;5032608;28;20237;-69
2022/06/30 11:49:23;;;;;;;3.22;3.03;;;;;;;31.17;33.31;94890.00;5032037;28;20199;-69
2022/06/30 11:51:50;;;;;;;2.85;2.65;;;;;;;31.27;32.02;94890.50;5031391;28;20200;-70
2022/06/30 11:54:18;;;;;;;2.58;2.47;;;;;;;31.20;33.02;94889.59;5031796;28;20250;-69